sensor_id;sensor_type;location;lat;lon;timestamp;temperature;humidity
71088;SHT31;58747;50.674;4.616;2022-09-09T00:03:47;14.26;94.04
71088;SHT31;58747;50.674;4.616;2022-09-09T00:11:25;14.25;94.08
71088;SHT31;58747;50.674;4.616;2022-09-09T00:13:53;14.25;93.92
71088;SHT31;58747;50.674;4.616;2022-09-09T00:16:26;14.25;94.52
71088;SHT31;58747;50.674;4.616;2022-09-09T00:21:33;14.38;93.85
71088;SHT31;58747;50.674;4.616;2022-09-09T00:24:08;14.42;93.44
71088;SHT31;58747;50.674;4.616;2022-09-09T00:26:40;14.43;93.44
71088;SHT31;58747;50.674;4.616;2022-09-09T00:31:33;14.39;93.64
71088;SHT31;58747;50.674;4.616;2022-09-09T00:34:02;14.33;93.46
71088;SHT31;58747;50.674;4.616;2022-09-09T00:36:31;14.36;93.45
71088;SHT31;58747;50.674;4.616;2022-09-09T00:39:00;14.38;93.60
71088;SHT31;58747;50.674;4.616;2022-09-09T00:44:12;14.42;92.91
71088;SHT31;58747;50.674;4.616;2022-09-09T00:50:03;14.42;93.30
71088;SHT31;58747;50.674;4.616;2022-09-09T00:52:36;14.45;93.13
71088;SHT31;58747;50.674;4.616;2022-09-09T00:55:23;14.49;93.20
71088;SHT31;58747;50.674;4.616;2022-09-09T00:57:52;14.49;93.35
71088;SHT31;58747;50.674;4.616;2022-09-09T01:00:25;14.50;93.29
71088;SHT31;58747;50.674;4.616;2022-09-09T01:05:46;14.66;93.04
71088;SHT31;58747;50.674;4.616;2022-09-09T01:11:50;14.49;94.06
71088;SHT31;58747;50.674;4.616;2022-09-09T01:14:38;14.50;93.92
71088;SHT31;58747;50.674;4.616;2022-09-09T01:17:26;14.62;93.36
71088;SHT31;58747;50.674;4.616;2022-09-09T01:28:11;14.70;93.37
71088;SHT31;58747;50.674;4.616;2022-09-09T01:30:40;14.68;92.79
71088;SHT31;58747;50.674;4.616;2022-09-09T01:33:16;14.66;93.40
71088;SHT31;58747;50.674;4.616;2022-09-09T01:35:55;14.69;93.13
71088;SHT31;58747;50.674;4.616;2022-09-09T01:38:22;14.66;93.13
71088;SHT31;58747;50.674;4.616;2022-09-09T01:40:49;14.62;93.26
71088;SHT31;58747;50.674;4.616;2022-09-09T01:43:18;14.66;93.48
71088;SHT31;58747;50.674;4.616;2022-09-09T01:45:44;14.68;93.23
71088;SHT31;58747;50.674;4.616;2022-09-09T01:48:11;14.70;92.96
71088;SHT31;58747;50.674;4.616;2022-09-09T01:50:36;14.72;92.78
71088;SHT31;58747;50.674;4.616;2022-09-09T01:53:02;14.69;92.97
71088;SHT31;58747;50.674;4.616;2022-09-09T01:58:24;14.72;92.34
71088;SHT31;58747;50.674;4.616;2022-09-09T02:01:02;14.65;92.99
71088;SHT31;58747;50.674;4.616;2022-09-09T02:03:32;14.68;92.59
71088;SHT31;58747;50.674;4.616;2022-09-09T02:11:13;14.58;93.38
71088;SHT31;58747;50.674;4.616;2022-09-09T02:13:40;14.58;93.12
71088;SHT31;58747;50.674;4.616;2022-09-09T02:16:23;14.55;93.02
71088;SHT31;58747;50.674;4.616;2022-09-09T02:21:34;14.59;92.11
71088;SHT31;58747;50.674;4.616;2022-09-09T02:24:04;14.62;91.94
71088;SHT31;58747;50.674;4.616;2022-09-09T02:26:31;14.56;92.34
71088;SHT31;58747;50.674;4.616;2022-09-09T02:29:14;14.53;92.44
71088;SHT31;58747;50.674;4.616;2022-09-09T02:31:43;14.62;91.64
71088;SHT31;58747;50.674;4.616;2022-09-09T02:34:11;14.60;92.33
71088;SHT31;58747;50.674;4.616;2022-09-09T02:36:40;14.56;92.29
71088;SHT31;58747;50.674;4.616;2022-09-09T02:39:08;14.52;91.99
71088;SHT31;58747;50.674;4.616;2022-09-09T02:41:37;14.53;91.68
71088;SHT31;58747;50.674;4.616;2022-09-09T02:44:09;14.55;92.23
71088;SHT31;58747;50.674;4.616;2022-09-09T02:46:53;14.49;92.00
71088;SHT31;58747;50.674;4.616;2022-09-09T02:49:40;14.52;91.73
71088;SHT31;58747;50.674;4.616;2022-09-09T02:52:08;14.53;91.46
71088;SHT31;58747;50.674;4.616;2022-09-09T02:54:38;14.55;92.07
71088;SHT31;58747;50.674;4.616;2022-09-09T02:57:09;14.55;91.71
71088;SHT31;58747;50.674;4.616;2022-09-09T02:59:35;14.48;92.18
71088;SHT31;58747;50.674;4.616;2022-09-09T03:02:01;14.41;92.23
71088;SHT31;58747;50.674;4.616;2022-09-09T03:04:26;14.48;92.58
71088;SHT31;58747;50.674;4.616;2022-09-09T03:06:52;14.46;92.79
71088;SHT31;58747;50.674;4.616;2022-09-09T03:09:17;14.45;92.05
71088;SHT31;58747;50.674;4.616;2022-09-09T03:11:42;14.49;91.90
71088;SHT31;58747;50.674;4.616;2022-09-09T03:14:08;14.49;92.02
71088;SHT31;58747;50.674;4.616;2022-09-09T03:16:33;14.49;92.20
71088;SHT31;58747;50.674;4.616;2022-09-09T03:19:00;14.49;92.62
71088;SHT31;58747;50.674;4.616;2022-09-09T03:21:25;14.48;92.07
71088;SHT31;58747;50.674;4.616;2022-09-09T03:23:51;14.42;92.49
71088;SHT31;58747;50.674;4.616;2022-09-09T03:26:16;14.36;92.66
71088;SHT31;58747;50.674;4.616;2022-09-09T03:28:42;14.43;92.36
71088;SHT31;58747;50.674;4.616;2022-09-09T03:31:08;14.42;92.27
71088;SHT31;58747;50.674;4.616;2022-09-09T03:33:38;14.39;92.63
71088;SHT31;58747;50.674;4.616;2022-09-09T03:36:05;14.43;92.01
71088;SHT31;58747;50.674;4.616;2022-09-09T03:38:30;14.42;92.21
71088;SHT31;58747;50.674;4.616;2022-09-09T03:40:57;14.41;92.50
71088;SHT31;58747;50.674;4.616;2022-09-09T03:43:24;14.41;92.54
71088;SHT31;58747;50.674;4.616;2022-09-09T03:45:50;14.48;91.95
71088;SHT31;58747;50.674;4.616;2022-09-09T03:48:17;14.45;91.72
71088;SHT31;58747;50.674;4.616;2022-09-09T03:50:49;14.45;91.88
71088;SHT31;58747;50.674;4.616;2022-09-09T03:53:16;14.46;92.14
71088;SHT31;58747;50.674;4.616;2022-09-09T03:55:46;14.50;91.75
71088;SHT31;58747;50.674;4.616;2022-09-09T03:58:13;14.52;91.88
71088;SHT31;58747;50.674;4.616;2022-09-09T04:00:39;14.55;91.68
71088;SHT31;58747;50.674;4.616;2022-09-09T04:03:09;14.48;92.03
71088;SHT31;58747;50.674;4.616;2022-09-09T04:05:35;14.50;91.69
71088;SHT31;58747;50.674;4.616;2022-09-09T04:08:00;14.49;91.75
71088;SHT31;58747;50.674;4.616;2022-09-09T04:10:25;14.55;91.86
71088;SHT31;58747;50.674;4.616;2022-09-09T04:12:51;14.59;91.64
71088;SHT31;58747;50.674;4.616;2022-09-09T04:15:17;14.60;91.31
71088;SHT31;58747;50.674;4.616;2022-09-09T04:17:43;14.58;91.72
71088;SHT31;58747;50.674;4.616;2022-09-09T04:20:09;14.59;91.12
71088;SHT31;58747;50.674;4.616;2022-09-09T04:22:37;14.56;91.38
71088;SHT31;58747;50.674;4.616;2022-09-09T04:25:05;14.62;91.49
71088;SHT31;58747;50.674;4.616;2022-09-09T04:27:31;14.60;91.56
71088;SHT31;58747;50.674;4.616;2022-09-09T04:29:57;14.60;91.91
71088;SHT31;58747;50.674;4.616;2022-09-09T04:32:22;14.55;91.52
71088;SHT31;58747;50.674;4.616;2022-09-09T04:34:48;14.50;91.55
71088;SHT31;58747;50.674;4.616;2022-09-09T04:37:14;14.59;91.54
71088;SHT31;58747;50.674;4.616;2022-09-09T04:39:39;14.49;91.54
71088;SHT31;58747;50.674;4.616;2022-09-09T04:42:05;14.48;91.94
71088;SHT31;58747;50.674;4.616;2022-09-09T04:44:30;14.49;91.47
71088;SHT31;58747;50.674;4.616;2022-09-09T04:46:55;14.45;91.47
71088;SHT31;58747;50.674;4.616;2022-09-09T04:49:21;14.46;91.37
71088;SHT31;58747;50.674;4.616;2022-09-09T04:51:48;14.42;91.85
71088;SHT31;58747;50.674;4.616;2022-09-09T04:54:14;14.39;91.38
71088;SHT31;58747;50.674;4.616;2022-09-09T04:56:39;14.49;91.52
71088;SHT31;58747;50.674;4.616;2022-09-09T04:59:06;14.55;91.16
71088;SHT31;58747;50.674;4.616;2022-09-09T05:01:31;14.59;91.20
71088;SHT31;58747;50.674;4.616;2022-09-09T05:03:57;14.58;91.19
71088;SHT31;58747;50.674;4.616;2022-09-09T05:06:23;14.65;90.75
71088;SHT31;58747;50.674;4.616;2022-09-09T05:08:48;14.69;90.04
71088;SHT31;58747;50.674;4.616;2022-09-09T05:11:20;14.79;90.00
71088;SHT31;58747;50.674;4.616;2022-09-09T05:13:46;14.79;89.75
71088;SHT31;58747;50.674;4.616;2022-09-09T05:16:12;14.79;89.84
71088;SHT31;58747;50.674;4.616;2022-09-09T05:18:39;15.08;89.60
71088;SHT31;58747;50.674;4.616;2022-09-09T05:21:05;14.99;87.96
71088;SHT31;58747;50.674;4.616;2022-09-09T05:23:31;14.91;88.72
71088;SHT31;58747;50.674;4.616;2022-09-09T05:25:58;14.86;88.49
71088;SHT31;58747;50.674;4.616;2022-09-09T05:28:24;14.93;88.50
71088;SHT31;58747;50.674;4.616;2022-09-09T05:31:01;14.93;88.04
71088;SHT31;58747;50.674;4.616;2022-09-09T05:33:29;14.91;88.14
71088;SHT31;58747;50.674;4.616;2022-09-09T05:35:56;14.89;87.54
71088;SHT31;58747;50.674;4.616;2022-09-09T05:38:21;14.86;87.79
71088;SHT31;58747;50.674;4.616;2022-09-09T05:40:49;14.80;88.20
71088;SHT31;58747;50.674;4.616;2022-09-09T05:43:15;14.81;88.08
71088;SHT31;58747;50.674;4.616;2022-09-09T05:45:40;14.83;88.54
71088;SHT31;58747;50.674;4.616;2022-09-09T05:48:05;14.86;88.05
71088;SHT31;58747;50.674;4.616;2022-09-09T05:50:32;14.87;87.75
71088;SHT31;58747;50.674;4.616;2022-09-09T05:52:57;14.99;88.21
71088;SHT31;58747;50.674;4.616;2022-09-09T05:55:23;14.97;87.57
71088;SHT31;58747;50.674;4.616;2022-09-09T05:57:48;15.00;87.79
71088;SHT31;58747;50.674;4.616;2022-09-09T06:00:14;14.99;87.53
71088;SHT31;58747;50.674;4.616;2022-09-09T06:02:40;15.01;87.61
71088;SHT31;58747;50.674;4.616;2022-09-09T06:05:06;15.04;87.68
71088;SHT31;58747;50.674;4.616;2022-09-09T06:07:33;15.10;87.44
71088;SHT31;58747;50.674;4.616;2022-09-09T06:09:58;15.01;87.58
71088;SHT31;58747;50.674;4.616;2022-09-09T06:12:25;15.08;87.33
71088;SHT31;58747;50.674;4.616;2022-09-09T06:14:51;15.17;87.76
71088;SHT31;58747;50.674;4.616;2022-09-09T06:17:16;15.28;86.93
71088;SHT31;58747;50.674;4.616;2022-09-09T06:19:42;15.27;87.10
71088;SHT31;58747;50.674;4.616;2022-09-09T06:22:07;15.66;85.90
71088;SHT31;58747;50.674;4.616;2022-09-09T06:24:36;15.59;85.29
71088;SHT31;58747;50.674;4.616;2022-09-09T06:27:02;15.52;86.40
71088;SHT31;58747;50.674;4.616;2022-09-09T06:29:28;15.49;85.83
71088;SHT31;58747;50.674;4.616;2022-09-09T06:31:53;15.52;85.39
71088;SHT31;58747;50.674;4.616;2022-09-09T06:34:18;15.59;85.50
71088;SHT31;58747;50.674;4.616;2022-09-09T06:36:44;15.57;85.40
71088;SHT31;58747;50.674;4.616;2022-09-09T06:39:10;15.58;85.72
71088;SHT31;58747;50.674;4.616;2022-09-09T06:41:36;15.81;84.63
71088;SHT31;58747;50.674;4.616;2022-09-09T06:44:03;15.72;84.85
71088;SHT31;58747;50.674;4.616;2022-09-09T06:46:30;15.90;84.30
71088;SHT31;58747;50.674;4.616;2022-09-09T06:48:58;15.83;84.55
71088;SHT31;58747;50.674;4.616;2022-09-09T06:51:29;15.78;84.86
71088;SHT31;58747;50.674;4.616;2022-09-09T06:53:56;15.68;84.80
71088;SHT31;58747;50.674;4.616;2022-09-09T06:56:29;15.62;85.56
71088;SHT31;58747;50.674;4.616;2022-09-09T06:58:56;15.81;85.22
71088;SHT31;58747;50.674;4.616;2022-09-09T07:01:25;15.78;85.55
71088;SHT31;58747;50.674;4.616;2022-09-09T07:03:53;15.90;85.19
71088;SHT31;58747;50.674;4.616;2022-09-09T07:06:27;15.82;84.44
71088;SHT31;58747;50.674;4.616;2022-09-09T07:08:55;15.76;85.66
71088;SHT31;58747;50.674;4.616;2022-09-09T07:11:23;15.76;84.63
71088;SHT31;58747;50.674;4.616;2022-09-09T07:13:50;15.76;84.74
71088;SHT31;58747;50.674;4.616;2022-09-09T07:16:17;15.75;84.03
71088;SHT31;58747;50.674;4.616;2022-09-09T07:18:43;15.79;84.59
71088;SHT31;58747;50.674;4.616;2022-09-09T07:21:10;15.76;84.48
71088;SHT31;58747;50.674;4.616;2022-09-09T07:23:37;15.83;84.13
71088;SHT31;58747;50.674;4.616;2022-09-09T07:26:07;15.87;84.06
71088;SHT31;58747;50.674;4.616;2022-09-09T07:28:33;15.92;84.15
71088;SHT31;58747;50.674;4.616;2022-09-09T07:31:00;15.93;83.97
71088;SHT31;58747;50.674;4.616;2022-09-09T07:33:29;15.92;84.18
71088;SHT31;58747;50.674;4.616;2022-09-09T07:36:22;15.97;83.76
71088;SHT31;58747;50.674;4.616;2022-09-09T07:38:51;15.93;84.07
71088;SHT31;58747;50.674;4.616;2022-09-09T07:41:25;15.99;83.58
71088;SHT31;58747;50.674;4.616;2022-09-09T07:43:52;16.10;83.56
71088;SHT31;58747;50.674;4.616;2022-09-09T07:46:19;16.00;83.76
71088;SHT31;58747;50.674;4.616;2022-09-09T07:48:46;16.03;83.92
71088;SHT31;58747;50.674;4.616;2022-09-09T07:51:15;16.06;83.73
71088;SHT31;58747;50.674;4.616;2022-09-09T07:53:45;16.12;83.72
71088;SHT31;58747;50.674;4.616;2022-09-09T07:56:13;16.09;83.31
71088;SHT31;58747;50.674;4.616;2022-09-09T07:58:40;16.06;83.66
71088;SHT31;58747;50.674;4.616;2022-09-09T08:01:11;15.99;84.52
71088;SHT31;58747;50.674;4.616;2022-09-09T08:03:37;15.93;85.52
71088;SHT31;58747;50.674;4.616;2022-09-09T08:06:05;15.87;85.89
71088;SHT31;58747;50.674;4.616;2022-09-09T08:08:32;15.93;84.99
71088;SHT31;58747;50.674;4.616;2022-09-09T08:11:07;16.05;85.34
71088;SHT31;58747;50.674;4.616;2022-09-09T08:13:34;16.12;84.17
71088;SHT31;58747;50.674;4.616;2022-09-09T08:16:20;16.28;84.67
71088;SHT31;58747;50.674;4.616;2022-09-09T08:18:47;16.24;84.32
71088;SHT31;58747;50.674;4.616;2022-09-09T08:21:19;16.23;83.52
71088;SHT31;58747;50.674;4.616;2022-09-09T08:23:46;16.24;83.65
71088;SHT31;58747;50.674;4.616;2022-09-09T08:26:20;16.37;83.63
71088;SHT31;58747;50.674;4.616;2022-09-09T08:28:50;16.47;83.74
71088;SHT31;58747;50.674;4.616;2022-09-09T08:33:43;16.58;83.34
71088;SHT31;58747;50.674;4.616;2022-09-09T08:36:13;16.48;82.75
71088;SHT31;58747;50.674;4.616;2022-09-09T08:38:40;16.33;83.69
71088;SHT31;58747;50.674;4.616;2022-09-09T08:43:48;16.36;83.76
71088;SHT31;58747;50.674;4.616;2022-09-09T08:46:26;16.33;83.85
71088;SHT31;58747;50.674;4.616;2022-09-09T08:49:14;16.26;84.79
71088;SHT31;58747;50.674;4.616;2022-09-09T08:51:41;16.28;84.18
71088;SHT31;58747;50.674;4.616;2022-09-09T08:54:08;16.20;85.01
71088;SHT31;58747;50.674;4.616;2022-09-09T08:56:35;16.03;87.10
71088;SHT31;58747;50.674;4.616;2022-09-09T08:59:02;15.81;87.78
71088;SHT31;58747;50.674;4.616;2022-09-09T09:01:35;15.62;89.11
71088;SHT31;58747;50.674;4.616;2022-09-09T09:06:55;15.41;89.77
71088;SHT31;58747;50.674;4.616;2022-09-09T09:11:57;15.35;90.97
71088;SHT31;58747;50.674;4.616;2022-09-09T09:14:34;15.26;91.46
71088;SHT31;58747;50.674;4.616;2022-09-09T09:17:06;15.18;91.97
71088;SHT31;58747;50.674;4.616;2022-09-09T09:19:33;15.12;92.05
71088;SHT31;58747;50.674;4.616;2022-09-09T09:22:17;15.12;92.72
71088;SHT31;58747;50.674;4.616;2022-09-09T09:27:34;15.10;92.88
71088;SHT31;58747;50.674;4.616;2022-09-09T09:30:12;15.18;93.24
71088;SHT31;58747;50.674;4.616;2022-09-09T09:32:39;15.44;92.10
71088;SHT31;58747;50.674;4.616;2022-09-09T09:35:12;15.39;91.54
71088;SHT31;58747;50.674;4.616;2022-09-09T09:37:40;15.35;92.58
71088;SHT31;58747;50.674;4.616;2022-09-09T09:40:24;15.34;92.78
71088;SHT31;58747;50.674;4.616;2022-09-09T09:42:57;15.32;92.92
71088;SHT31;58747;50.674;4.616;2022-09-09T09:45:43;15.51;92.77
71088;SHT31;58747;50.674;4.616;2022-09-09T09:48:13;15.41;91.83
71088;SHT31;58747;50.674;4.616;2022-09-09T09:51:00;15.37;92.22
71088;SHT31;58747;50.674;4.616;2022-09-09T09:53:32;15.44;92.63
71088;SHT31;58747;50.674;4.616;2022-09-09T09:58:31;15.39;93.29
71088;SHT31;58747;50.674;4.616;2022-09-09T10:00:59;15.45;93.28
71088;SHT31;58747;50.674;4.616;2022-09-09T10:03:30;15.45;93.17
71088;SHT31;58747;50.674;4.616;2022-09-09T10:05:56;15.39;92.57
71088;SHT31;58747;50.674;4.616;2022-09-09T10:08:23;15.41;92.67
71088;SHT31;58747;50.674;4.616;2022-09-09T10:13:52;15.51;92.52
71088;SHT31;58747;50.674;4.616;2022-09-09T10:19:10;15.70;92.67
71088;SHT31;58747;50.674;4.616;2022-09-09T10:24:17;15.73;92.97
71088;SHT31;58747;50.674;4.616;2022-09-09T10:35:09;15.87;92.76
71088;SHT31;58747;50.674;4.616;2022-09-09T10:37:59;15.85;92.84
71088;SHT31;58747;50.674;4.616;2022-09-09T10:43:39;15.90;92.26
71088;SHT31;58747;50.674;4.616;2022-09-09T10:51:28;16.09;92.36
71088;SHT31;58747;50.674;4.616;2022-09-09T10:54:22;16.13;92.51
71088;SHT31;58747;50.674;4.616;2022-09-09T10:56:44;16.12;91.69
71088;SHT31;58747;50.674;4.616;2022-09-09T10:59:19;16.16;90.87
71088;SHT31;58747;50.674;4.616;2022-09-09T11:04:53;16.05;91.43
71088;SHT31;58747;50.674;4.616;2022-09-09T11:07:30;16.10;91.28
71088;SHT31;58747;50.674;4.616;2022-09-09T11:10:05;16.16;91.62
71088;SHT31;58747;50.674;4.616;2022-09-09T11:12:34;16.21;91.47
71088;SHT31;58747;50.674;4.616;2022-09-09T11:17:35;16.31;92.56
71088;SHT31;58747;50.674;4.616;2022-09-09T11:20:01;16.31;92.40
71088;SHT31;58747;50.674;4.616;2022-09-09T11:25:17;16.23;91.82
71088;SHT31;58747;50.674;4.616;2022-09-09T11:30:22;16.21;91.26
71088;SHT31;58747;50.674;4.616;2022-09-09T11:38:33;16.27;91.87
71088;SHT31;58747;50.674;4.616;2022-09-09T11:41:07;16.21;92.01
71088;SHT31;58747;50.674;4.616;2022-09-09T11:43:46;16.16;92.58
71088;SHT31;58747;50.674;4.616;2022-09-09T11:46:15;16.12;93.26
71088;SHT31;58747;50.674;4.616;2022-09-09T11:48:56;16.10;92.43
71088;SHT31;58747;50.674;4.616;2022-09-09T11:56:42;16.14;92.61
71088;SHT31;58747;50.674;4.616;2022-09-09T11:59:27;16.27;92.84
71088;SHT31;58747;50.674;4.616;2022-09-09T12:02:28;16.40;93.39
71088;SHT31;58747;50.674;4.616;2022-09-09T12:05:05;16.37;91.61
71088;SHT31;58747;50.674;4.616;2022-09-09T12:08:06;16.44;92.30
71088;SHT31;58747;50.674;4.616;2022-09-09T12:10:36;16.38;92.71
71088;SHT31;58747;50.674;4.616;2022-09-09T12:13:24;16.43;90.94
71088;SHT31;58747;50.674;4.616;2022-09-09T12:15:56;16.58;92.16
71088;SHT31;58747;50.674;4.616;2022-09-09T12:18:38;16.74;90.82
71088;SHT31;58747;50.674;4.616;2022-09-09T12:24:10;17.08;88.10
71088;SHT31;58747;50.674;4.616;2022-09-09T12:26:43;16.99;88.84
71088;SHT31;58747;50.674;4.616;2022-09-09T12:29:28;16.88;89.46
71088;SHT31;58747;50.674;4.616;2022-09-09T12:32:10;16.84;89.08
71088;SHT31;58747;50.674;4.616;2022-09-09T12:34:50;16.89;88.93
71088;SHT31;58747;50.674;4.616;2022-09-09T12:40:00;16.85;87.96
71088;SHT31;58747;50.674;4.616;2022-09-09T12:42:27;16.98;89.45
71088;SHT31;58747;50.674;4.616;2022-09-09T12:47:20;17.23;88.93
71088;SHT31;58747;50.674;4.616;2022-09-09T12:49:47;17.44;88.04
71088;SHT31;58747;50.674;4.616;2022-09-09T12:52:29;17.51;86.42
71088;SHT31;58747;50.674;4.616;2022-09-09T12:54:57;17.49;87.56
71088;SHT31;58747;50.674;4.616;2022-09-09T12:57:24;17.63;84.58
71088;SHT31;58747;50.674;4.616;2022-09-09T12:59:51;17.67;84.30
71088;SHT31;58747;50.674;4.616;2022-09-09T13:02:21;17.74;84.35
71088;SHT31;58747;50.674;4.616;2022-09-09T13:04:48;17.92;84.71
71088;SHT31;58747;50.674;4.616;2022-09-09T13:07:16;17.97;84.67
71088;SHT31;58747;50.674;4.616;2022-09-09T13:09:42;17.88;84.96
71088;SHT31;58747;50.674;4.616;2022-09-09T13:12:20;17.82;83.85
71088;SHT31;58747;50.674;4.616;2022-09-09T13:14:49;17.77;84.25
71088;SHT31;58747;50.674;4.616;2022-09-09T13:17:26;17.82;83.21
71088;SHT31;58747;50.674;4.616;2022-09-09T13:19:54;17.77;83.29
71088;SHT31;58747;50.674;4.616;2022-09-09T13:22:31;17.80;82.98
71088;SHT31;58747;50.674;4.616;2022-09-09T13:25:24;17.94;83.15
71088;SHT31;58747;50.674;4.616;2022-09-09T13:30:27;18.19;83.88
71088;SHT31;58747;50.674;4.616;2022-09-09T13:33:01;18.36;84.10
71088;SHT31;58747;50.674;4.616;2022-09-09T13:35:27;18.53;83.02
71088;SHT31;58747;50.674;4.616;2022-09-09T13:37:53;18.53;80.14
71088;SHT31;58747;50.674;4.616;2022-09-09T13:40:20;18.52;81.75
71088;SHT31;58747;50.674;4.616;2022-09-09T13:42:47;18.48;80.27
71088;SHT31;58747;50.674;4.616;2022-09-09T13:45:21;18.46;80.20
71088;SHT31;58747;50.674;4.616;2022-09-09T13:47:47;18.50;81.05
71088;SHT31;58747;50.674;4.616;2022-09-09T13:50:27;18.66;80.74
71088;SHT31;58747;50.674;4.616;2022-09-09T13:52:54;18.90;79.09
71088;SHT31;58747;50.674;4.616;2022-09-09T13:55:21;18.86;77.21
71088;SHT31;58747;50.674;4.616;2022-09-09T13:57:55;18.94;77.63
71088;SHT31;58747;50.674;4.616;2022-09-09T14:00:22;18.96;77.90
71088;SHT31;58747;50.674;4.616;2022-09-09T14:02:49;19.03;76.51
71088;SHT31;58747;50.674;4.616;2022-09-09T14:05:14;19.06;80.02
71088;SHT31;58747;50.674;4.616;2022-09-09T14:07:41;19.10;79.07
71088;SHT31;58747;50.674;4.616;2022-09-09T14:10:07;19.08;75.38
71088;SHT31;58747;50.674;4.616;2022-09-09T14:12:33;19.14;76.08
71088;SHT31;58747;50.674;4.616;2022-09-09T14:14:58;19.18;77.42
71088;SHT31;58747;50.674;4.616;2022-09-09T14:17:25;19.24;75.72
71088;SHT31;58747;50.674;4.616;2022-09-09T14:19:54;19.29;78.03
71088;SHT31;58747;50.674;4.616;2022-09-09T14:22:20;19.32;75.11
71088;SHT31;58747;50.674;4.616;2022-09-09T14:24:45;19.29;75.39
71088;SHT31;58747;50.674;4.616;2022-09-09T14:27:11;19.35;74.52
71088;SHT31;58747;50.674;4.616;2022-09-09T14:29:36;19.32;77.11
71088;SHT31;58747;50.674;4.616;2022-09-09T14:32:02;19.31;77.31
71088;SHT31;58747;50.674;4.616;2022-09-09T14:34:27;19.22;75.96
71088;SHT31;58747;50.674;4.616;2022-09-09T14:36:52;19.21;76.90
71088;SHT31;58747;50.674;4.616;2022-09-09T14:39:18;19.17;75.92
71088;SHT31;58747;50.674;4.616;2022-09-09T14:41:43;19.19;76.68
71088;SHT31;58747;50.674;4.616;2022-09-09T14:44:08;19.18;77.49
71088;SHT31;58747;50.674;4.616;2022-09-09T14:46:34;19.15;76.22
71088;SHT31;58747;50.674;4.616;2022-09-09T14:49:00;19.14;74.71
71088;SHT31;58747;50.674;4.616;2022-09-09T14:51:26;19.14;71.48
71088;SHT31;58747;50.674;4.616;2022-09-09T14:53:56;19.07;73.59
71088;SHT31;58747;50.674;4.616;2022-09-09T14:56:27;19.11;71.52
71088;SHT31;58747;50.674;4.616;2022-09-09T14:58:54;19.10;71.67
71088;SHT31;58747;50.674;4.616;2022-09-09T15:01:20;18.97;71.42
71088;SHT31;58747;50.674;4.616;2022-09-09T15:03:54;18.84;73.19
71088;SHT31;58747;50.674;4.616;2022-09-09T15:06:21;18.84;73.08
71088;SHT31;58747;50.674;4.616;2022-09-09T15:08:47;18.71;74.36
71088;SHT31;58747;50.674;4.616;2022-09-09T15:11:13;18.57;74.14
71088;SHT31;58747;50.674;4.616;2022-09-09T15:13:40;18.55;77.11
71088;SHT31;58747;50.674;4.616;2022-09-09T15:16:09;18.45;76.44
71088;SHT31;58747;50.674;4.616;2022-09-09T15:18:34;18.32;76.84
71088;SHT31;58747;50.674;4.616;2022-09-09T15:21:03;18.28;76.95
71088;SHT31;58747;50.674;4.616;2022-09-09T15:23:33;18.16;78.42
71088;SHT31;58747;50.674;4.616;2022-09-09T15:25:59;18.04;81.53
71088;SHT31;58747;50.674;4.616;2022-09-09T15:28:24;17.97;80.38
71088;SHT31;58747;50.674;4.616;2022-09-09T15:30:51;18.02;80.23
71088;SHT31;58747;50.674;4.616;2022-09-09T15:33:17;18.12;81.49
71088;SHT31;58747;50.674;4.616;2022-09-09T15:35:43;18.31;80.40
71088;SHT31;58747;50.674;4.616;2022-09-09T15:38:08;18.36;80.32
71088;SHT31;58747;50.674;4.616;2022-09-09T15:40:33;18.46;81.13
71088;SHT31;58747;50.674;4.616;2022-09-09T15:42:59;18.56;79.80
71088;SHT31;58747;50.674;4.616;2022-09-09T15:45:24;18.57;77.62
71088;SHT31;58747;50.674;4.616;2022-09-09T15:47:50;18.69;76.16
71088;SHT31;58747;50.674;4.616;2022-09-09T15:50:15;18.74;77.52
71088;SHT31;58747;50.674;4.616;2022-09-09T15:52:41;18.70;75.81
71088;SHT31;58747;50.674;4.616;2022-09-09T15:55:06;18.69;76.27
71088;SHT31;58747;50.674;4.616;2022-09-09T15:57:33;18.60;77.21
71088;SHT31;58747;50.674;4.616;2022-09-09T16:00:00;18.61;77.00
71088;SHT31;58747;50.674;4.616;2022-09-09T16:02:25;18.49;77.95
71088;SHT31;58747;50.674;4.616;2022-09-09T16:04:50;18.42;78.64
71088;SHT31;58747;50.674;4.616;2022-09-09T16:07:16;18.36;79.64
71088;SHT31;58747;50.674;4.616;2022-09-09T16:09:41;18.26;80.08
71088;SHT31;58747;50.674;4.616;2022-09-09T16:12:08;18.24;79.43
71088;SHT31;58747;50.674;4.616;2022-09-09T16:14:37;18.25;79.63
71088;SHT31;58747;50.674;4.616;2022-09-09T16:17:04;18.38;78.17
71088;SHT31;58747;50.674;4.616;2022-09-09T16:19:30;18.42;78.34
71088;SHT31;58747;50.674;4.616;2022-09-09T16:21:56;18.46;78.55
71088;SHT31;58747;50.674;4.616;2022-09-09T16:24:21;18.40;78.28
71088;SHT31;58747;50.674;4.616;2022-09-09T16:26:50;18.38;76.84
71088;SHT31;58747;50.674;4.616;2022-09-09T16:29:17;18.24;77.05
71088;SHT31;58747;50.674;4.616;2022-09-09T16:31:43;18.24;77.04
71088;SHT31;58747;50.674;4.616;2022-09-09T16:34:09;18.28;76.70
71088;SHT31;58747;50.674;4.616;2022-09-09T16:36:36;18.32;77.90
71088;SHT31;58747;50.674;4.616;2022-09-09T16:39:06;18.39;76.28
71088;SHT31;58747;50.674;4.616;2022-09-09T16:41:32;18.55;78.26
71088;SHT31;58747;50.674;4.616;2022-09-09T16:43:59;18.55;76.91
71088;SHT31;58747;50.674;4.616;2022-09-09T16:46:27;18.50;76.95
71088;SHT31;58747;50.674;4.616;2022-09-09T16:48:56;18.46;77.28
71088;SHT31;58747;50.674;4.616;2022-09-09T16:51:29;18.39;78.73
71088;SHT31;58747;50.674;4.616;2022-09-09T16:53:58;18.29;78.34
71088;SHT31;58747;50.674;4.616;2022-09-09T16:56:26;18.13;79.42
71088;SHT31;58747;50.674;4.616;2022-09-09T16:58:54;17.94;80.15
71088;SHT31;58747;50.674;4.616;2022-09-09T17:01:21;17.92;80.05
71088;SHT31;58747;50.674;4.616;2022-09-09T17:03:46;17.82;81.33
71088;SHT31;58747;50.674;4.616;2022-09-09T17:06:13;18.13;79.90
71088;SHT31;58747;50.674;4.616;2022-09-09T17:08:40;18.00;78.80
71088;SHT31;58747;50.674;4.616;2022-09-09T17:11:13;17.85;79.36
71088;SHT31;58747;50.674;4.616;2022-09-09T17:13:41;17.81;81.42
71088;SHT31;58747;50.674;4.616;2022-09-09T17:16:06;17.73;81.22
71088;SHT31;58747;50.674;4.616;2022-09-09T17:18:32;17.77;80.91
71088;SHT31;58747;50.674;4.616;2022-09-09T17:21:12;17.74;81.26
71088;SHT31;58747;50.674;4.616;2022-09-09T17:23:39;17.64;81.79
71088;SHT31;58747;50.674;4.616;2022-09-09T17:26:06;17.73;81.46
71088;SHT31;58747;50.674;4.616;2022-09-09T17:28:36;17.73;81.59
71088;SHT31;58747;50.674;4.616;2022-09-09T17:31:05;17.53;81.33
71088;SHT31;58747;50.674;4.616;2022-09-09T17:33:33;17.42;79.25
71088;SHT31;58747;50.674;4.616;2022-09-09T17:36:02;17.32;77.85
71088;SHT31;58747;50.674;4.616;2022-09-09T17:38:28;17.26;77.50
71088;SHT31;58747;50.674;4.616;2022-09-09T17:41:02;17.18;78.42